createdAt,value
2018-09-08T00:01:38.222Z,15.60
2018-09-08T00:04:06.827Z,15.60
2018-09-08T00:06:36.159Z,15.60
2018-09-08T00:09:07.843Z,15.50
2018-09-08T00:11:36.383Z,15.50
2018-09-08T00:14:05.004Z,15.40
2018-09-08T00:16:38.869Z,15.30
2018-09-08T00:19:12.793Z,15.30
2018-09-08T00:21:46.555Z,15.30
2018-09-08T00:24:21.018Z,15.30
2018-09-08T00:26:48.718Z,15.40
2018-09-08T00:29:26.243Z,15.40
2018-09-08T00:31:55.217Z,15.30
2018-09-08T00:34:23.695Z,15.30
2018-09-08T00:36:52.134Z,15.20
2018-09-08T00:39:20.600Z,15.20
2018-09-08T00:41:49.097Z,15.20
2018-09-08T00:44:17.626Z,15.30
2018-09-08T00:46:46.109Z,15.10
2018-09-08T00:49:14.575Z,15.20
2018-09-08T00:51:43.055Z,15.10
2018-09-08T00:54:11.564Z,15.00
2018-09-08T00:56:40.032Z,15.00
2018-09-08T00:59:08.617Z,15.10
2018-09-08T01:01:37.134Z,15.20
2018-09-08T01:04:05.607Z,15.30
2018-09-08T01:06:34.076Z,15.50
2018-09-08T01:09:02.602Z,15.40
2018-09-08T01:11:31.034Z,15.20
2018-09-08T01:13:59.523Z,15.00
2018-09-08T01:16:27.982Z,14.80
2018-09-08T01:18:56.436Z,14.70
2018-09-08T01:21:24.934Z,14.60
2018-09-08T01:23:54.346Z,14.40
2018-09-08T01:26:23.447Z,14.30
2018-09-08T01:28:52.429Z,14.30
2018-09-08T01:31:21.444Z,14.20
2018-09-08T01:33:49.890Z,14.30
2018-09-08T01:36:18.380Z,14.20
2018-09-08T01:38:46.888Z,14.10
2018-09-08T01:41:15.396Z,14.20
2018-09-08T01:43:43.835Z,14.20
2018-09-08T01:46:12.314Z,14.10
2018-09-08T01:48:40.753Z,13.80
2018-09-08T01:51:09.205Z,13.60
2018-09-08T01:53:37.655Z,13.50
2018-09-08T01:56:06.134Z,13.50
2018-09-08T01:58:34.591Z,13.50
2018-09-08T02:01:03.051Z,13.50
2018-09-08T02:03:31.472Z,13.40
2018-09-08T02:06:00.403Z,13.70
2018-09-08T02:08:29.128Z,13.80
2018-09-08T02:10:57.592Z,13.60
2018-09-08T02:13:26.052Z,13.40
2018-09-08T02:15:54.504Z,13.50
2018-09-08T02:18:22.963Z,13.30
2018-09-08T02:20:51.443Z,13.00
2018-09-08T02:23:19.889Z,13.00
2018-09-08T02:25:48.779Z,12.90
2018-09-08T02:28:17.558Z,12.90
2018-09-08T02:30:46.015Z,12.90
2018-09-08T02:33:14.765Z,12.80
2018-09-08T02:35:43.826Z,12.50
2018-09-08T02:38:12.261Z,12.70
2018-09-08T02:40:40.782Z,12.90
2018-09-08T02:43:09.209Z,12.80
2018-09-08T02:45:37.701Z,12.80
2018-09-08T02:48:06.149Z,12.60
2018-09-08T02:50:36.727Z,12.20
2018-09-08T02:53:04.755Z,12.10
2018-09-08T02:55:32.772Z,11.90
2018-09-08T02:58:00.275Z,11.70
2018-09-08T03:00:29.178Z,11.90
2018-09-08T03:02:56.514Z,11.70
2018-09-08T03:05:24.094Z,11.90
2018-09-08T03:07:51.490Z,12.00
2018-09-08T03:10:19.428Z,11.80
2018-09-08T03:12:46.763Z,11.70
2018-09-08T03:15:14.140Z,11.60
2018-09-08T03:17:41.467Z,11.60
2018-09-08T03:20:08.823Z,11.70
2018-09-08T03:22:36.470Z,11.50
2018-09-08T03:25:03.776Z,11.50
2018-09-08T03:27:31.105Z,11.40
2018-09-08T03:29:58.413Z,11.50
2018-09-08T03:32:25.760Z,11.50
2018-09-08T03:34:53.068Z,11.20
2018-09-08T03:37:20.400Z,11.10
2018-09-08T03:39:47.710Z,11.10
2018-09-08T03:42:15.057Z,11.10
2018-09-08T03:44:42.371Z,11.20
2018-09-08T03:47:09.724Z,11.10
2018-09-08T03:49:37.387Z,11.10
2018-09-08T03:52:05.008Z,10.90
2018-09-08T03:54:32.327Z,10.80
2018-09-08T03:56:59.685Z,10.60
2018-09-08T03:59:27.076Z,10.70
2018-09-08T04:01:54.415Z,10.80
2018-09-08T04:04:23.153Z,10.90
2018-09-08T04:06:51.598Z,10.90
2018-09-08T04:09:20.058Z,11.00
2018-09-08T04:11:48.521Z,10.80
2018-09-08T04:14:16.942Z,11.00
2018-09-08T04:16:45.618Z,10.80
2018-09-08T04:19:14.354Z,10.90
2018-09-08T04:21:42.803Z,10.80
2018-09-08T04:24:11.322Z,10.60
2018-09-08T04:26:39.763Z,10.50
2018-09-08T04:29:08.198Z,10.20
2018-09-08T04:31:36.665Z,10.20
2018-09-08T04:34:05.131Z,10.00
2018-09-08T04:36:33.596Z,10.00
2018-09-08T04:39:02.018Z,10.10
2018-09-08T04:41:30.702Z,10.30
2018-09-08T04:43:59.516Z,10.00
2018-09-08T04:46:27.998Z,10.00
2018-09-08T04:48:56.452Z,10.10
2018-09-08T04:51:24.950Z,9.90
2018-09-08T04:53:53.447Z,10.00
2018-09-08T04:56:21.931Z,9.90
2018-09-08T04:58:50.391Z,10.00
2018-09-08T05:01:18.848Z,10.00
2018-09-08T05:03:47.317Z,9.90
2018-09-08T05:06:16.123Z,10.10
2018-09-08T05:08:44.607Z,10.00
2018-09-08T05:11:13.311Z,10.20
2018-09-08T05:13:41.792Z,10.10
2018-09-08T05:16:10.279Z,9.90
2018-09-08T05:18:38.722Z,10.00
2018-09-08T05:21:13.646Z,10.30
2018-09-08T05:23:42.120Z,10.30
2018-09-08T05:26:10.732Z,10.10
2018-09-08T05:28:39.183Z,10.10
2018-09-08T05:31:07.636Z,10.10
2018-09-08T05:33:36.038Z,10.10
2018-09-08T05:36:04.486Z,9.90
2018-09-08T05:38:33.514Z,9.90
2018-09-08T05:41:01.935Z,9.80
2018-09-08T05:43:30.358Z,9.70
2018-09-08T05:45:58.774Z,9.70
2018-09-08T05:48:27.595Z,9.90
2018-09-08T05:50:56.438Z,10.10
2018-09-08T05:53:25.114Z,10.30
2018-09-08T05:55:53.652Z,10.50
2018-09-08T05:58:22.356Z,10.40
2018-09-08T06:00:51.399Z,10.40
2018-09-08T06:03:19.858Z,10.30
2018-09-08T06:05:48.322Z,10.30
2018-09-08T06:08:16.807Z,10.50
2018-09-08T06:10:45.226Z,10.60
2018-09-08T06:13:14.298Z,10.70
2018-09-08T06:15:42.775Z,10.90
2018-09-08T06:18:11.549Z,11.00
2018-09-08T06:20:39.986Z,11.30
2018-09-08T06:23:08.454Z,11.30
2018-09-08T06:25:36.968Z,11.50
2018-09-08T06:28:05.526Z,11.60
2018-09-08T06:30:33.975Z,11.60
2018-09-08T06:33:02.440Z,11.80
2018-09-08T06:35:30.912Z,12.00
2018-09-08T06:37:59.389Z,12.30
2018-09-08T06:40:27.845Z,12.60
2018-09-08T06:42:56.348Z,12.70
2018-09-08T06:45:24.827Z,12.90
2018-09-08T06:47:53.368Z,13.10
2018-09-08T06:50:21.855Z,13.20
2018-09-08T06:52:50.415Z,13.40
2018-09-08T06:55:18.884Z,13.50
2018-09-08T06:57:47.686Z,13.70
2018-09-08T07:00:16.308Z,13.80
2018-09-08T07:02:45.075Z,13.90
2018-09-08T07:05:13.903Z,13.80
2018-09-08T07:07:42.436Z,13.70
2018-09-08T07:10:10.928Z,13.80
2018-09-08T07:12:39.419Z,14.00
2018-09-08T07:15:07.959Z,14.10
2018-09-08T07:17:36.714Z,14.20
2018-09-08T07:20:05.935Z,14.30
2018-09-08T07:22:34.403Z,14.50
2018-09-08T07:25:03.090Z,14.70
2018-09-08T07:27:31.440Z,15.00
2018-09-08T07:29:59.876Z,15.10
2018-09-08T07:32:28.414Z,15.00
2018-09-08T07:34:56.834Z,15.10
2018-09-08T07:37:25.327Z,15.20
2018-09-08T07:39:53.774Z,15.50
2018-09-08T07:42:22.245Z,15.60
2018-09-08T07:44:50.691Z,15.90
2018-09-08T07:47:19.153Z,16.00
2018-09-08T07:49:47.571Z,16.20
2018-09-08T07:52:16.033Z,16.30
2018-09-08T07:54:44.490Z,16.40
2018-09-08T07:57:12.998Z,16.30
2018-09-08T07:59:41.439Z,16.50
2018-09-08T08:02:10.174Z,16.70
